Time,TemperatureF,DewpointF,PressureIn,WindDirection,WindDirectionDegrees,WindSpeedMPH,WindSpeedGustMPH,Humidity,HourlyPrecipIn,Conditions,Clouds,dailyrainin,SoftwareType,DateUTC
2013-10-27 00:04:00,32.8,28.0,30.05,NE,47,0.0,1.0,83,0.00,,,0.00,weatherlink.com 1.10,2013-10-27 06:04:00,
2013-10-27 00:19:00,31.6,27.0,30.05,NE,47,0.0,2.0,83,0.00,,,0.00,weatherlink.com 1.10,2013-10-27 06:19:00,
2013-10-27 00:49:00,29.8,27.0,30.03,East,88,2.0,5.0,89,0.00,,,0.00,weatherlink.com 1.10,2013-10-27 06:49:00,
2013-10-27 01:04:00,29.2,26.0,30.03,East,88,0.0,2.0,88,0.00,,,0.00,weatherlink.com 1.10,2013-10-27 07:04:00,
2013-10-27 01:19:00,29.3,27.0,30.02,East,88,0.0,2.0,90,0.00,,,0.00,weatherlink.com 1.10,2013-10-27 07:19:00,
2013-10-27 01:34:00,28.5,26.0,30.02,East,88,0.0,2.0,90,0.00,,,0.00,weatherlink.com 1.10,2013-10-27 07:34:00,
2013-10-27 01:49:00,28.2,26.0,30.01,East,88,0.0,1.0,91,0.00,,,0.00,weatherlink.com 1.10,2013-10-27 07:49:00,
2013-10-27 02:04:00,27.9,26.0,30.00,East,88,0.0,1.0,92,0.00,,,0.00,weatherlink.com 1.10,2013-10-27 08:04:00,
2013-10-27 02:19:00,28.4,27.0,29.99,East,88,0.0,2.0,93,0.00,,,0.00,weatherlink.com 1.10,2013-10-27 08:19:00,
2013-10-27 02:34:00,29.3,27.0,29.98,NE,37,1.0,2.0,90,0.00,,,0.00,weatherlink.com 1.10,2013-10-27 08:34:00,
2013-10-27 02:50:00,29.4,27.0,29.97,NE,36,0.0,5.0,92,0.00,,,0.00,weatherlink.com 1.10,2013-10-27 08:50:00,
2013-10-27 03:04:00,28.9,26.0,29.96,NE,36,0.0,1.0,88,0.00,,,0.00,weatherlink.com 1.10,2013-10-27 09:04:00,
2013-10-27 03:19:00,27.8,25.0,29.96,NE,36,0.0,0.0,89,0.00,,,0.00,weatherlink.com 1.10,2013-10-27 09:19:00,
2013-10-27 03:34:00,26.9,25.0,29.95,NE,51,0.0,2.0,91,0.00,,,0.00,weatherlink.com 1.10,2013-10-27 09:34:00,
2013-10-27 03:49:00,27.0,25.0,29.94,WNW,294,0.0,3.0,91,0.00,,,0.00,weatherlink.com 1.10,2013-10-27 09:49:00,
2013-10-27 04:05:00,27.0,25.0,29.93,NNW,329,2.0,3.0,93,0.00,,,0.00,weatherlink.com 1.10,2013-10-27 10:05:00,
2013-10-27 04:20:00,26.5,25.0,29.92,NNW,329,0.0,2.0,93,0.00,,,0.00,weatherlink.com 1.10,2013-10-27 10:20:00,
2013-10-27 04:35:00,26.1,25.0,29.91,East,83,0.0,5.0,94,0.00,,,0.00,weatherlink.com 1.10,2013-10-27 10:35:00,
2013-10-27 04:50:00,26.3,25.0,29.90,ENE,61,0.0,3.0,94,0.00,,,0.00,weatherlink.com 1.10,2013-10-27 10:50:00,
2013-10-27 05:05:00,26.1,24.0,29.90,NW,304,0.0,1.0,92,0.00,,,0.00,weatherlink.com 1.10,2013-10-27 11:05:00,
2013-10-27 05:20:00,26.0,24.0,29.89,East,88,0.0,5.0,93,0.00,,,0.00,weatherlink.com 1.10,2013-10-27 11:20:00,
2013-10-27 05:35:00,26.1,24.0,29.88,East,82,3.0,8.0,92,0.00,,,0.00,weatherlink.com 1.10,2013-10-27 11:35:00,
2013-10-27 05:50:00,26.9,25.0,29.88,ENE,74,3.0,5.0,93,0.00,,,0.00,weatherlink.com 1.10,2013-10-27 11:50:00,
2013-10-27 06:05:00,27.6,25.0,29.87,SSW,192,0.0,4.0,90,0.00,,,0.00,weatherlink.com 1.10,2013-10-27 12:05:00,
2013-10-27 06:20:00,27.4,25.0,29.86,West,266,1.0,5.0,92,0.00,,,0.00,weatherlink.com 1.10,2013-10-27 12:20:00,
2013-10-27 06:35:00,26.7,24.0,29.85,East,80,2.0,3.0,89,0.00,,,0.00,weatherlink.com 1.10,2013-10-27 12:35:00,
2013-10-27 06:50:00,26.4,24.0,29.84,North,5,1.0,5.0,91,0.00,,,0.00,weatherlink.com 1.10,2013-10-27 12:50:00,
2013-10-27 07:05:00,28.0,26.0,29.84,North,360,1.0,3.0,93,0.00,,,0.00,weatherlink.com 1.10,2013-10-27 13:05:00,
2013-10-27 07:20:00,28.1,26.0,29.83,North,5,0.0,0.0,91,0.00,,,0.00,weatherlink.com 1.10,2013-10-27 13:20:00,
2013-10-27 07:35:00,28.4,26.0,29.83,ENE,58,2.0,4.0,92,0.00,,,0.00,weatherlink.com 1.10,2013-10-27 13:35:00,
2013-10-27 07:50:00,28.4,26.0,29.82,NNW,342,1.0,2.0,92,0.00,,,0.00,weatherlink.com 1.10,2013-10-27 13:50:00,
2013-10-27 08:05:00,28.5,26.0,29.82,NNW,342,0.0,2.0,91,0.00,,,0.00,weatherlink.com 1.10,2013-10-27 14:05:00,
2013-10-27 08:20:00,28.3,27.0,29.82,NNW,342,0.0,2.0,93,0.00,,,0.00,weatherlink.com 1.10,2013-10-27 14:20:00,
2013-10-27 08:35:00,28.2,26.0,29.82,ENE,67,0.0,1.0,92,0.00,,,0.00,weatherlink.com 1.10,2013-10-27 14:35:00,
2013-10-27 08:50:00,27.7,25.0,29.82,ENE,67,0.0,1.0,88,0.00,,,0.00,weatherlink.com 1.10,2013-10-27 14:50:00,
2013-10-27 09:05:00,26.4,24.0,29.82,ENE,67,0.0,1.0,92,0.00,,,0.00,weatherlink.com 1.10,2013-10-27 15:05:00,
2013-10-27 09:20:00,29.1,28.0,29.81,NNE,30,3.0,4.0,94,0.00,,,0.00,weatherlink.com 1.10,2013-10-27 15:20:00,
2013-10-27 09:35:00,30.3,28.0,29.81,North,11,0.0,2.0,91,0.00,,,0.00,weatherlink.com 1.10,2013-10-27 15:35:00,
2013-10-27 09:50:00,31.4,29.0,29.81,North,11,0.0,1.0,89,0.00,,,0.00,weatherlink.com 1.10,2013-10-27 15:50:00,
2013-10-27 10:05:00,32.4,29.0,29.80,North,11,0.0,1.0,87,0.00,,,0.00,weatherlink.com 1.10,2013-10-27 16:05:00,
2013-10-27 10:20:00,32.8,29.0,29.80,North,11,0.0,2.0,87,0.00,,,0.00,weatherlink.com 1.10,2013-10-27 16:20:00,
2013-10-27 10:35:00,33.5,30.0,29.79,North,11,0.0,1.0,85,0.00,,,0.00,weatherlink.com 1.10,2013-10-27 16:35:00,
2013-10-27 10:51:00,34.7,31.0,29.79,NW,319,1.0,2.0,85,0.00,,,0.00,weatherlink.com 1.10,2013-10-27 16:51:00,
2013-10-27 11:06:00,36.4,31.0,29.79,NNW,340,0.0,2.0,82,0.00,,,0.00,weatherlink.com 1.10,2013-10-27 17:06:00,
2013-10-27 11:21:00,38.4,31.0,29.78,NNW,340,0.0,2.0,76,0.00,,,0.00,weatherlink.com 1.10,2013-10-27 17:21:00,
2013-10-27 11:36:00,40.4,32.0,29.77,North,360,5.0,6.0,71,0.00,,,0.00,weatherlink.com 1.10,2013-10-27 17:36:00,
2013-10-27 11:51:00,42.2,33.0,29.77,NW,323,0.0,3.0,69,0.00,,,0.00,weatherlink.com 1.10,2013-10-27 17:51:00,
2013-10-27 12:06:00,45.1,33.0,29.76,West,267,1.0,3.0,62,0.00,,,0.00,weatherlink.com 1.10,2013-10-27 18:06:00,
2013-10-27 12:21:00,46.2,32.0,29.75,NW,322,0.0,3.0,58,0.00,,,0.00,weatherlink.com 1.10,2013-10-27 18:21:00,
2013-10-27 12:36:00,47.3,32.0,29.74,West,280,0.0,5.0,56,0.00,,,0.00,weatherlink.com 1.10,2013-10-27 18:36:00,
2013-10-27 12:51:00,49.1,30.0,29.73,NNW,327,8.0,8.0,48,0.00,,,0.00,weatherlink.com 1.10,2013-10-27 18:51:00,
2013-10-27 13:06:00,48.6,31.0,29.72,North,355,6.0,9.0,51,0.00,,,0.00,weatherlink.com 1.10,2013-10-27 19:06:00,
2013-10-27 13:21:00,49.2,31.0,29.71,NNW,329,5.0,11.0,49,0.00,,,0.00,weatherlink.com 1.10,2013-10-27 19:21:00,
2013-10-27 13:36:00,48.9,29.0,29.70,NW,319,11.0,15.0,47,0.00,,,0.00,weatherlink.com 1.10,2013-10-27 19:36:00,
2013-10-27 13:51:00,48.5,30.0,29.70,WNW,292,3.0,11.0,49,0.00,,,0.00,weatherlink.com 1.10,2013-10-27 19:51:00,
2013-10-27 14:06:00,49.2,30.0,29.69,West,275,6.0,13.0,48,0.00,,,0.00,weatherlink.com 1.10,2013-10-27 20:06:00,
2013-10-27 14:21:00,49.7,30.0,29.68,WNW,295,4.0,12.0,47,0.00,,,0.00,weatherlink.com 1.10,2013-10-27 20:21:00,
2013-10-27 14:36:00,50.0,30.0,29.68,NNW,327,7.0,14.0,47,0.00,,,0.00,weatherlink.com 1.10,2013-10-27 20:36:00,
2013-10-27 14:51:00,50.4,31.0,29.68,WNW,299,14.0,14.0,48,0.00,,,0.00,weatherlink.com 1.10,2013-10-27 20:51:00,
2013-10-27 15:06:00,50.0,32.0,29.67,NNW,328,15.0,18.0,50,0.00,,,0.00,weatherlink.com 1.10,2013-10-27 21:06:00,
2013-10-27 15:21:00,50.4,32.0,29.67,NW,316,4.0,14.0,50,0.00,,,0.00,weatherlink.com 1.10,2013-10-27 21:21:00,
2013-10-27 15:36:00,51.6,32.0,29.66,WNW,292,6.0,12.0,47,0.00,,,0.00,weatherlink.com 1.10,2013-10-27 21:36:00,
2013-10-27 15:52:00,52.0,33.0,29.67,West,279,3.0,15.0,48,0.00,,,0.00,weatherlink.com 1.10,2013-10-27 21:52:00,
2013-10-27 16:07:00,51.5,33.0,29.67,NW,325,7.0,15.0,49,0.00,,,0.00,weatherlink.com 1.10,2013-10-27 22:07:00,
2013-10-27 16:22:00,51.1,33.0,29.67,NW,306,7.0,17.0,50,0.00,,,0.00,weatherlink.com 1.10,2013-10-27 22:22:00,
2013-10-27 16:37:00,50.2,33.0,29.67,NW,323,12.0,18.0,53,0.00,,,0.00,weatherlink.com 1.10,2013-10-27 22:37:00,
2013-10-27 16:52:00,49.7,33.0,29.68,WNW,284,8.0,19.0,54,0.00,,,0.00,weatherlink.com 1.10,2013-10-27 22:52:00,
2013-10-27 17:07:00,49.5,33.0,29.69,WNW,300,6.0,17.0,54,0.00,,,0.00,weatherlink.com 1.10,2013-10-27 23:07:00,
2013-10-27 17:22:00,49.6,33.0,29.70,NW,317,11.0,17.0,54,0.00,,,0.00,weatherlink.com 1.10,2013-10-27 23:22:00,
2013-10-27 17:37:00,49.2,33.0,29.71,NW,318,11.0,20.0,55,0.00,,,0.00,weatherlink.com 1.10,2013-10-27 23:37:00,
2013-10-27 17:52:00,48.5,34.0,29.72,NNW,336,13.0,19.0,57,0.00,,,0.00,weatherlink.com 1.10,2013-10-27 23:52:00,
2013-10-27 18:07:00,48.3,34.0,29.74,NW,323,11.0,19.0,58,0.00,,,0.00,weatherlink.com 1.10,2013-10-28 00:07:00,
2013-10-27 18:22:00,48.5,33.0,29.74,NW,326,9.0,16.0,55,0.00,,,0.00,weatherlink.com 1.10,2013-10-28 00:22:00,
2013-10-27 18:37:00,48.8,33.0,29.76,West,267,6.0,20.0,54,0.00,,,0.00,weatherlink.com 1.10,2013-10-28 00:37:00,
2013-10-27 18:52:00,49.7,31.0,29.78,NW,313,9.0,15.0,49,0.00,,,0.00,weatherlink.com 1.10,2013-10-28 00:52:00,
2013-10-27 19:07:00,50.0,30.0,29.80,NW,319,7.0,15.0,46,0.00,,,0.00,weatherlink.com 1.10,2013-10-28 01:07:00,
2013-10-27 19:22:00,49.2,30.0,29.82,NNW,333,10.0,13.0,47,0.00,,,0.00,weatherlink.com 1.10,2013-10-28 01:22:00,
2013-10-27 19:37:00,48.3,29.0,29.84,NE,51,11.0,17.0,48,0.00,,,0.00,weatherlink.com 1.10,2013-10-28 01:37:00,
2013-10-27 19:52:00,47.4,29.0,29.85,NNW,346,9.0,17.0,50,0.00,,,0.00,weatherlink.com 1.10,2013-10-28 01:52:00,
2013-10-27 20:07:00,46.5,29.0,29.88,North,5,6.0,14.0,50,0.00,,,0.00,weatherlink.com 1.10,2013-10-28 02:07:00,
2013-10-27 20:22:00,46.0,28.0,29.88,NNW,329,3.0,13.0,50,0.00,,,0.00,weatherlink.com 1.10,2013-10-28 02:22:00,
2013-10-27 20:37:00,45.9,27.0,29.91,East,81,13.0,13.0,48,0.00,,,0.00,weatherlink.com 1.10,2013-10-28 02:37:00,
2013-10-27 20:52:00,45.1,25.0,29.91,NNE,18,6.0,12.0,46,0.00,,,0.00,weatherlink.com 1.10,2013-10-28 02:52:00,
2013-10-27 21:07:00,44.4,25.0,29.91,NNW,342,10.0,22.0,46,0.00,,,0.00,weatherlink.com 1.10,2013-10-28 03:07:00,
2013-10-27 21:22:00,43.7,24.0,29.93,NNW,336,7.0,19.0,46,0.00,,,0.00,weatherlink.com 1.10,2013-10-28 03:22:00,
2013-10-27 21:37:00,43.3,23.0,29.93,NNE,16,11.0,19.0,45,0.00,,,0.00,weatherlink.com 1.10,2013-10-28 03:37:00,
2013-10-27 21:52:00,42.7,22.0,29.95,NNW,336,5.0,17.0,44,0.00,,,0.00,weatherlink.com 1.10,2013-10-28 03:52:00,
2013-10-27 22:07:00,42.5,22.0,29.96,NNE,15,9.0,14.0,44,0.00,,,0.00,weatherlink.com 1.10,2013-10-28 04:07:00,
2013-10-27 22:22:00,41.8,21.0,29.97,NNE,14,11.0,19.0,44,0.00,,,0.00,weatherlink.com 1.10,2013-10-28 04:22:00,
2013-10-27 22:37:00,41.5,21.0,29.98,North,5,12.0,14.0,44,0.00,,,0.00,weatherlink.com 1.10,2013-10-28 04:37:00,
2013-10-27 22:52:00,41.1,21.0,30.00,NNW,327,2.0,15.0,44,0.00,,,0.00,weatherlink.com 1.10,2013-10-28 04:52:00,
2013-10-27 23:07:00,40.6,20.0,30.00,North,360,6.0,12.0,43,0.00,,,0.00,weatherlink.com 1.10,2013-10-28 05:07:00,
2013-10-27 23:22:00,40.2,19.0,30.01,East,88,5.0,9.0,43,0.00,,,0.00,weatherlink.com 1.10,2013-10-28 05:22:00,
2013-10-27 23:37:00,40.0,18.0,30.02,North,355,5.0,17.0,42,0.00,,,0.00,weatherlink.com 1.10,2013-10-28 05:37:00,
2013-10-27 23:52:00,39.5,18.0,30.02,NNW,344,8.0,20.0,42,0.00,,,0.00,weatherlink.com 1.10,2013-10-28 05:52:00,